Time;durP1;ratioP1;P1;durP2;ratioP2;P2;SDS_P1;SDS_P2;PMS_P1;PMS_P2;Temp;Humidity;BMP_temperature;BMP_pressure;BME280_temperature;BME280_humidity;BME280_pressure;Samples;Min_cycle;Max_cycle;Signal;HPM_P1;HPM_P2
2022/07/02 00:00:10;;;;;;;1.70;1.60;;;;;;;-145.69;100.00;71957.59;5072957;28;20461;-79
2022/07/02 00:02:37;;;;;;;5.77;1.90;;;;;;;-145.69;100.00;71949.66;5072869;28;20198;-80
2022/07/02 00:05:07;;;;;;;4.90;1.97;;;;;;;-145.69;100.00;71955.63;5072873;28;20209;-81
2022/07/02 00:07:34;;;;;;;3.97;2.50;;;;;;;-145.69;100.00;71955.63;5072640;28;20249;-80
2022/07/02 00:10:01;;;;;;;3.23;2.00;;;;;;;-145.69;100.00;71959.59;5072562;28;20201;-80
2022/07/02 00:12:29;;;;;;;2.17;1.73;;;;;;;-145.69;100.00;71977.50;5072778;28;20628;-79
2022/07/02 00:14:59;;;;;;;2.40;1.60;;;;;;;-145.69;100.00;71985.47;5072978;28;20202;-80
2022/07/02 00:17:26;;;;;;;7.70;2.07;;;;;;;-145.69;100.00;71991.44;5076793;28;20237;-81
2022/07/02 00:19:54;;;;;;;6.03;1.97;;;;;;;-145.69;100.00;71983.47;5076625;28;20690;-82
2022/07/02 00:22:21;;;;;;;2.20;1.87;;;;;;;-145.69;100.00;71987.47;5076408;28;20213;-80
2022/07/02 00:24:47;;;;;;;1.90;1.70;;;;;;;-145.69;100.00;71995.41;5076443;28;20673;-80
2022/07/02 00:27:16;;;;;;;2.30;2.00;;;;;;;-145.69;100.00;72017.31;5076618;28;20198;-81
2022/07/02 00:29:49;;;;;;;4.50;1.90;;;;;;;-145.69;100.00;72015.31;5076563;28;20198;-81
2022/07/02 00:32:17;;;;;;;2.30;2.10;;;;;;;-145.69;100.00;72009.34;5076453;28;20218;-81
2022/07/02 00:34:45;;;;;;;5.53;2.17;;;;;;;-145.69;100.00;71991.44;5076353;28;20202;-83
2022/07/02 00:37:13;;;;;;;2.93;2.17;;;;;;;-145.69;100.00;71991.44;5076062;28;20222;-81
2022/07/02 00:39:40;;;;;;;6.37;2.53;;;;;;;-145.69;100.00;71999.41;5065385;28;20203;-81
2022/07/02 00:42:09;;;;;;;3.30;2.30;;;;;;;-145.69;100.00;71999.41;5056329;28;20204;-81
2022/07/02 00:44:36;;;;;;;3.10;2.27;;;;;;;-145.69;100.00;71999.41;5056201;28;20204;-82
2022/07/02 00:47:05;;;;;;;5.57;2.07;;;;;;;-145.69;100.00;72013.31;5056122;28;20298;-82
2022/07/02 00:49:34;;;;;;;3.40;1.80;;;;;;;-145.69;100.00;72023.28;5056005;28;20227;-84
2022/07/02 00:52:00;;;;;;;3.63;1.97;;;;;;;-145.69;100.00;72027.25;5056552;28;20215;-84
2022/07/02 00:54:27;;;;;;;2.33;1.93;;;;;;;-145.69;100.00;72023.28;5057977;28;20679;-84
2022/07/02 00:56:54;;;;;;;4.40;1.83;;;;;;;-145.69;100.00;72029.25;5056704;28;20234;-84
2022/07/02 00:59:21;;;;;;;5.23;1.80;;;;;;;-145.69;100.00;72037.22;5058487;28;20199;-84
2022/07/02 01:01:48;;;;;;;4.30;1.63;;;;;;;-145.69;100.00;72031.25;5055789;28;20645;-82
2022/07/02 01:04:16;;;;;;;2.17;1.47;;;;;;;-145.69;100.00;72033.22;5055775;28;20597;-83
2022/07/02 01:06:44;;;;;;;3.07;1.90;;;;;;;-145.69;100.00;72045.16;5055905;28;20205;-83
2022/07/02 01:11:59;;;;;;;2.73;1.77;;;;;;;-145.69;100.00;72055.13;5055702;28;20218;-83
2022/07/02 01:14:26;;;;;;;3.37;1.53;;;;;;;-145.69;100.00;72061.09;5055555;28;20203;-82
2022/07/02 01:16:53;;;;;;;2.07;1.50;;;;;;;-145.69;100.00;72065.06;5055713;28;20234;-83
2022/07/02 01:19:20;;;;;;;5.83;1.93;;;;;;;-145.69;100.00;72071.03;5055672;28;20203;-83
2022/07/02 01:22:18;;;;;;;2.67;1.70;;;;;;;-145.69;100.00;72081.00;5055653;28;20210;-81
2022/07/02 01:24:47;;;;;;;1.73;1.60;;;;;;;-145.69;100.00;72082.97;5055438;28;20200;-81
2022/07/02 01:27:13;;;;;;;4.10;1.73;;;;;;;-145.69;100.00;72092.94;5054997;28;20214;-82
2022/07/02 01:29:40;;;;;;;2.10;1.50;;;;;;;-145.69;100.00;72090.94;5054753;28;20199;-82
2022/07/02 01:32:08;;;;;;;6.03;2.37;;;;;;;-145.69;100.00;72096.91;5055013;28;20658;-82
2022/07/02 01:34:39;;;;;;;2.53;1.53;;;;;;;-145.69;100.00;72094.94;5055515;28;20207;-82
2022/07/02 01:37:08;;;;;;;2.50;1.70;;;;;;;-145.69;100.00;72098.91;5055185;28;20238;-80
2022/07/02 01:39:37;;;;;;;5.27;1.87;;;;;;;-145.69;100.00;72096.91;5055106;28;20204;-83
2022/07/02 01:42:04;;;;;;;3.73;1.87;;;;;;;-145.69;100.00;72098.91;5054349;28;20552;-82
2022/07/02 01:44:31;;;;;;;2.07;1.73;;;;;;;-145.69;100.00;72098.91;5055086;28;20206;-83
2022/07/02 01:46:58;;;;;;;5.10;1.60;;;;;;;-145.69;100.00;72092.94;5055103;28;20204;-82
2022/07/02 01:49:24;;;;;;;2.70;2.00;;;;;;;-145.69;100.00;72110.84;5054876;28;20238;-81
2022/07/02 01:51:51;;;;;;;5.90;2.00;;;;;;;-145.69;100.00;72102.88;5054792;28;20199;-81
2022/07/02 01:54:17;;;;;;;3.80;1.83;;;;;;;-145.69;100.00;72100.91;5055106;28;20589;-80
2022/07/02 01:56:45;;;;;;;2.30;1.97;;;;;;;-145.69;100.00;72106.88;5054927;28;20223;-81
2022/07/02 01:59:13;;;;;;;3.13;2.10;;;;;;;-145.69;100.00;72110.84;5054953;28;20199;-81
2022/07/02 02:01:40;;;;;;;2.90;2.00;;;;;;;-145.69;100.00;72112.84;5054775;28;20222;-82
2022/07/02 02:04:06;;;;;;;2.20;1.87;;;;;;;-145.69;100.00;72098.91;5054723;28;20207;-82
2022/07/02 02:06:33;;;;;;;4.50;2.10;;;;;;;-145.69;100.00;72098.91;5054569;28;20200;-82
2022/07/02 02:08:59;;;;;;;3.50;2.10;;;;;;;-145.69;100.00;72108.84;5054862;28;20199;-81
2022/07/02 02:11:26;;;;;;;3.07;2.03;;;;;;;-145.69;100.00;72112.84;5054691;28;20609;-82
2022/07/02 02:13:57;;;;;;;4.73;1.77;;;;;;;-145.69;100.00;72122.78;5054462;28;20199;-83
2022/07/02 02:16:24;;;;;;;4.20;1.60;;;;;;;-145.69;100.00;72114.81;5054418;28;20223;-82
2022/07/02 02:18:51;;;;;;;10.83;2.20;;;;;;;-145.69;100.00;72118.81;5054605;28;20295;-82
2022/07/02 02:21:17;;;;;;;1.97;1.70;;;;;;;-145.69;100.00;72114.81;5054202;28;20676;-83
2022/07/02 02:23:44;;;;;;;2.40;1.90;;;;;;;-145.69;100.00;72122.78;5054430;28;20199;-82
2022/07/02 02:26:10;;;;;;;3.23;1.90;;;;;;;-145.69;100.00;72118.81;5054404;28;20555;-83
2022/07/02 02:28:37;;;;;;;2.75;2.00;;;;;;;-145.69;100.00;72120.81;5053275;28;20440;-82
2022/07/02 02:31:05;;;;;;;2.40;1.70;;;;;;;-145.69;100.00;72134.72;5054234;28;20248;-82
2022/07/02 02:33:32;;;;;;;6.33;1.77;;;;;;;-145.69;100.00;72144.69;5054028;28;20195;-81
2022/07/02 02:35:58;;;;;;;8.93;2.20;;;;;;;-145.69;100.00;72134.72;5054217;28;20199;-82
2022/07/02 02:38:25;;;;;;;2.20;1.90;;;;;;;-145.69;100.00;72142.69;5053575;28;20315;-81
2022/07/02 02:40:52;;;;;;;4.30;1.70;;;;;;;-145.69;100.00;72142.69;5053667;28;20199;-82
2022/07/02 02:43:18;;;;;;;5.07;1.73;;;;;;;-145.69;100.00;72150.66;5054048;28;20230;-82
2022/07/02 02:45:45;;;;;;;2.73;1.80;;;;;;;-145.69;100.00;72144.69;5053880;28;20208;-81
2022/07/02 02:48:13;;;;;;;3.23;2.50;;;;;;;-145.69;100.00;72144.69;5053621;28;20254;-81
2022/07/02 02:50:39;;;;;;;5.43;1.93;;;;;;;-145.69;100.00;72156.63;5069455;28;20198;-80
2022/07/02 02:53:06;;;;;;;8.07;1.97;;;;;;;-145.69;100.00;72154.63;5073631;28;20202;-82
2022/07/02 02:55:32;;;;;;;5.83;2.20;;;;;;;-145.69;100.00;72150.66;5073903;28;20195;-81
2022/07/02 02:57:59;;;;;;;5.20;2.03;;;;;;;-145.69;100.00;72152.66;5073931;28;20226;-81
2022/07/02 03:00:25;;;;;;;3.03;2.20;;;;;;;-145.69;100.00;72158.63;5073583;28;20210;-81
2022/07/02 03:02:52;;;;;;;4.63;2.10;;;;;;;-145.69;100.00;72162.59;5073470;28;20195;-82
2022/07/02 03:05:20;;;;;;;3.40;2.20;;;;;;;-145.69;100.00;72162.59;5073777;28;20203;-81
2022/07/02 03:07:46;;;;;;;8.33;2.17;;;;;;;-145.69;100.00;72168.56;5073636;28;20202;-82
2022/07/02 03:10:13;;;;;;;3.00;2.20;;;;;;;-145.69;100.00;72164.59;5081465;28;20674;-81
2022/07/02 03:12:39;;;;;;;4.23;3.03;;;;;;;-145.69;100.00;72158.63;5083098;28;20199;-81
2022/07/02 03:15:07;;;;;;;4.33;2.17;;;;;;;-145.69;100.00;72152.66;5077876;28;20198;-81
2022/07/02 03:17:33;;;;;;;5.70;3.13;;;;;;;-145.69;100.00;72142.69;5073472;28;20230;-82
2022/07/02 03:20:00;;;;;;;5.53;2.97;;;;;;;-145.69;100.00;72142.69;5073763;28;20199;-80
2022/07/02 03:22:28;;;;;;;4.13;2.80;;;;;;;-145.69;100.00;72146.69;5073301;28;20215;-80
2022/07/02 03:24:54;;;;;;;2.77;2.13;;;;;;;-145.69;100.00;72162.59;5073733;28;20595;-80
2022/07/02 03:27:21;;;;;;;3.23;2.50;;;;;;;-145.69;100.00;72166.56;5073146;28;20199;-80
2022/07/02 03:29:47;;;;;;;6.57;2.40;;;;;;;-145.69;100.00;72166.56;5073140;28;20222;-80
2022/07/02 03:32:14;;;;;;;3.73;2.50;;;;;;;-145.69;100.00;72174.53;5073238;28;20210;-81
2022/07/02 03:34:40;;;;;;;3.83;2.50;;;;;;;-145.69;100.00;72168.56;5073300;28;20282;-81
2022/07/02 03:37:07;;;;;;;3.73;2.70;;;;;;;-145.69;100.00;72174.53;5073037;28;20230;-80
2022/07/02 03:39:35;;;;;;;4.90;2.77;;;;;;;-145.69;100.00;72168.56;5073143;28;20203;-80
2022/07/02 03:42:01;;;;;;;4.57;2.93;;;;;;;-145.69;100.00;72172.53;5072868;28;20213;-81
2022/07/02 03:44:28;;;;;;;4.70;3.17;;;;;;;-145.69;100.00;72168.56;5072885;28;20205;-81
2022/07/02 03:46:54;;;;;;;14.87;3.50;;;;;;;-145.69;100.00;72154.63;5073354;28;20222;-81
2022/07/02 03:49:21;;;;;;;10.17;3.23;;;;;;;-145.69;100.00;72154.63;5072766;28;20238;-81
2022/07/02 03:51:47;;;;;;;5.77;3.20;;;;;;;-145.69;100.00;72158.63;5072776;28;20198;-80
2022/07/02 03:54:14;;;;;;;8.20;3.83;;;;;;;-145.69;100.00;72150.66;5072888;28;20206;-82
2022/07/02 03:56:41;;;;;;;7.43;4.17;;;;;;;-145.69;100.00;72138.72;5072717;28;20213;-80
2022/07/02 03:59:08;;;;;;;9.87;4.40;;;;;;;-145.69;100.00;72132.75;5072711;28;20194;-81
2022/07/02 04:01:34;;;;;;;15.73;5.47;;;;;;;-145.69;100.00;72126.78;5072923;28;20202;-79
2022/07/02 04:04:01;;;;;;;12.50;5.67;;;;;;;-145.69;100.00;72122.78;5072715;28;20685;-81
2022/07/02 04:06:27;;;;;;;7.87;4.77;;;;;;;-145.69;100.00;72126.78;5072677;28;20657;-80
2022/07/02 04:08:54;;;;;;;8.63;5.00;;;;;;;-145.69;100.00;72116.81;5072712;28;20202;-82
2022/07/02 04:11:20;;;;;;;10.10;4.67;;;;;;;-145.69;100.00;72118.81;5072659;28;20207;-81
2022/07/02 04:13:48;;;;;;;9.00;4.80;;;;;;;-145.69;100.00;72122.78;5072360;28;20443;-82
2022/07/02 04:16:14;;;;;;;11.00;4.57;;;;;;;-145.69;100.00;72114.81;5072534;28;20452;-81
2022/07/02 04:18:41;;;;;;;10.17;4.60;;;;;;;-145.69;100.00;72114.81;5072407;28;20716;-81
2022/07/02 04:21:07;;;;;;;8.13;4.30;;;;;;;-145.69;100.00;72114.81;5072732;28;20225;-82
2022/07/02 04:23:34;;;;;;;9.83;5.13;;;;;;;-145.69;100.00;72094.94;5072553;28;20205;-81
2022/07/02 04:26:01;;;;;;;9.30;5.37;;;;;;;-145.69;100.00;72090.94;5072507;28;20280;-81
2022/07/02 04:28:28;;;;;;;13.30;4.97;;;;;;;-145.69;100.00;72092.94;5072508;28;20199;-81
2022/07/02 04:30:56;;;;;;;14.10;6.13;;;;;;;-145.69;100.00;72061.09;5072595;28;20203;-81
2022/07/02 04:33:22;;;;;;;16.03;5.83;;;;;;;-145.69;100.00;72043.19;5072565;28;20199;-82
2022/07/02 04:35:49;;;;;;;14.20;6.47;;;;;;;-145.69;100.00;72027.25;5072237;28;20198;-82
2022/07/02 04:38:15;;;;;;;17.00;6.70;;;;;;;-145.69;100.00;72013.31;5072286;28;20227;-82
2022/07/02 04:40:42;;;;;;;12.40;6.40;;;;;;;-145.69;100.00;71989.44;5072257;28;20211;-82
2022/07/02 04:43:08;;;;;;;11.20;6.07;;;;;;;-145.69;100.00;71965.56;5072575;28;20199;-81
2022/07/02 04:45:34;;;;;;;8.17;4.93;;;;;;;-145.69;100.00;71951.63;5072284;28;20556;-81
2022/07/02 04:48:02;;;;;;;5.93;3.87;;;;;;;-145.69;100.00;71955.63;5072257;28;20230;-81
2022/07/02 04:50:29;;;;;;;6.83;3.93;;;;;;;-145.69;100.00;71949.66;5072990;28;20600;-82
2022/07/02 04:52:55;;;;;;;4.80;3.13;;;;;;;-145.69;100.00;71931.72;5072442;28;20282;-81
2022/07/02 04:55:22;;;;;;;5.70;3.30;;;;;;;-145.69;100.00;71929.75;5052700;28;20195;-81
2022/07/02 04:57:48;;;;;;;5.27;3.00;;;;;;;-145.69;100.00;71917.81;5052278;28;20223;-82
2022/07/02 05:00:15;;;;;;;6.13;3.10;;;;;;;-145.69;100.00;71899.88;5052494;28;20677;-81
2022/07/02 05:02:42;;;;;;;3.77;2.60;;;;;;;-145.69;100.00;71897.91;5053798;28;20203;-82
2022/07/02 05:05:10;;;;;;;3.53;2.43;;;;;;;-145.69;100.00;71878.00;5055885;28;20211;-82
2022/07/02 05:07:37;;;;;;;2.70;2.10;;;;;;;-145.69;100.00;71876.00;5055788;28;20203;-82
2022/07/02 05:10:03;;;;;;;3.07;2.10;;;;;;;-145.69;100.00;71868.06;5055412;28;20592;-79
2022/07/02 05:12:30;;;;;;;4.37;1.93;;;;;;;-145.69;100.00;71866.06;5055707;28;20214;-82
2022/07/02 05:14:56;;;;;;;5.53;1.88;;;;;;;-145.69;100.00;71860.09;5055726;28;20535;-79
2022/07/02 05:17:23;;;;;;;2.77;1.77;;;;;;;-145.69;100.00;71848.16;5055643;28;20231;-82
2022/07/02 05:19:49;;;;;;;1.73;1.50;;;;;;;-145.69;100.00;71832.22;5055533;28;20207;-82
2022/07/02 05:22:17;;;;;;;1.60;1.40;;;;;;;-145.69;100.00;71820.28;5055563;28;20199;-81
2022/07/02 05:24:44;;;;;;;1.47;1.20;;;;;;;-145.69;100.00;71796.41;5055885;28;20199;-81
2022/07/02 05:27:10;;;;;;;2.65;1.02;;;;;;;-145.69;100.00;71794.41;5054640;28;20443;-81
2022/07/02 05:29:37;;;;;;;1.67;1.20;;;;;;;-145.69;100.00;71788.44;5055579;28;20214;-82
2022/07/02 05:32:03;;;;;;;2.92;0.90;;;;;;;-145.69;100.00;71774.50;5055296;28;20203;-81
2022/07/02 05:34:30;;;;;;;1.13;1.02;;;;;;;-145.69;100.00;71764.56;5055422;28;20207;-82
2022/07/02 05:36:57;;;;;;;1.50;1.00;;;;;;;-145.69;100.00;71756.59;5055120;28;20207;-81
2022/07/02 05:39:24;;;;;;;0.73;0.70;;;;;;;-145.69;100.00;71744.66;5055107;28;20227;-81
2022/07/02 05:41:51;;;;;;;1.13;1.00;;;;;;;-145.69;100.00;71728.75;5055315;28;20196;-83
2022/07/02 05:44:17;;;;;;;3.38;1.00;;;;;;;-145.69;100.00;71677.00;5055219;28;20199;-82
2022/07/02 05:46:44;;;;;;;1.52;0.90;;;;;;;-145.69;100.00;71625.25;5055172;28;20570;-83
2022/07/02 05:49:10;;;;;;;0.80;0.80;;;;;;;-145.69;100.00;71599.41;5054815;28;20327;-80
2022/07/02 05:51:37;;;;;;;0.77;0.77;;;;;;;-145.69;100.00;71551.63;5054890;28;20211;-83
2022/07/02 05:54:04;;;;;;;0.77;0.70;;;;;;;-145.69;99.75;71513.81;5055188;28;20218;-81
2022/07/02 05:56:31;;;;;;;1.00;0.90;;;;;;;-145.69;98.93;71466.06;5055144;28;20324;-81
2022/07/02 05:58:59;;;;;;;0.82;0.50;;;;;;;-145.69;93.51;71478.00;5055066;28;20243;-82
2022/07/02 06:01:27;;;;;;;0.88;0.60;;;;;;;-145.69;91.65;71442.19;5055075;28;20203;-81
2022/07/02 06:03:53;;;;;;;2.95;0.60;;;;;;;-145.69;89.16;71394.44;5054661;28;20296;-81
2022/07/02 06:09:04;;;;;;;0.65;0.47;;;;;;;-145.69;86.27;71370.56;5054977;28;20203;-81
2022/07/02 06:11:32;;;;;;;1.05;0.50;;;;;;;-145.69;85.98;71342.69;5054926;28;20646;-82
2022/07/02 06:13:58;;;;;;;0.80;0.50;;;;;;;-145.69;85.21;71342.69;5054303;28;20203;-81
2022/07/02 06:16:27;;;;;;;1.58;0.50;;;;;;;-145.69;83.59;71348.66;5054575;28;20224;-82
2022/07/02 06:18:54;;;;;;;0.60;0.60;;;;;;;-145.69;86.18;71378.50;5054593;28;20270;-82
2022/07/02 06:21:20;;;;;;;1.73;0.40;;;;;;;-145.69;87.08;71416.31;5054593;28;20204;-81
2022/07/02 06:23:47;;;;;;;0.55;0.50;;;;;;;-145.69;88.66;71430.25;5054436;28;20211;-83
2022/07/02 06:26:13;;;;;;;0.50;0.50;;;;;;;-145.69;89.01;71436.22;5054446;28;20208;-82
2022/07/02 06:28:41;;;;;;;1.20;0.60;;;;;;;-145.69;88.43;71420.31;5054297;28;20207;-81
2022/07/02 06:31:07;;;;;;;1.17;0.60;;;;;;;-145.69;87.58;71404.38;5054199;28;20226;-80
2022/07/02 06:33:34;;;;;;;1.63;0.60;;;;;;;-145.69;84.37;71394.44;5054402;28;20204;-80
2022/07/02 06:36:01;;;;;;;0.60;0.60;;;;;;;-145.69;86.15;71366.56;5054189;28;20658;-83
2022/07/02 06:38:27;;;;;;;0.68;0.40;;;;;;;-145.69;84.38;71372.53;5054113;28;20227;-82
2022/07/02 06:40:55;;;;;;;1.40;0.40;;;;;;;-145.69;85.88;71342.69;5053006;28;20914;-80
2022/07/02 06:43:24;;;;;;;1.27;0.50;;;;;;;-145.69;84.14;71344.69;5053907;28;20257;-82
2022/07/02 06:45:51;;;;;;;0.40;0.40;;;;;;;-145.69;86.03;71318.81;5053986;28;20607;-83
2022/07/02 06:48:18;;;;;;;0.60;0.50;;;;;;;-145.69;81.82;71314.84;5053658;28;20223;-83
2022/07/02 06:50:44;;;;;;;1.58;0.50;;;;;;;-145.69;83.90;71334.75;5053921;28;20210;-82
2022/07/02 06:53:11;;;;;;;0.65;0.40;;;;;;;-145.69;88.02;71344.69;5053939;28;20195;-83
2022/07/02 06:55:37;;;;;;;0.93;0.40;;;;;;;-145.69;82.28;71263.09;5053800;28;20207;-82
2022/07/02 06:58:04;;;;;;;0.55;0.50;;;;;;;-145.69;82.62;71316.84;5064272;28;20233;-82
2022/07/02 07:00:30;;;;;;;0.73;0.40;;;;;;;-145.69;85.51;71310.84;5076171;28;20199;-80
2022/07/02 07:02:58;;;;;;;0.80;0.50;;;;;;;-145.69;82.01;71308.88;5074067;28;20205;-82
2022/07/02 07:05:25;;;;;;;0.73;0.60;;;;;;;-145.69;81.00;71292.94;5073524;28;20195;-83
2022/07/02 07:07:51;;;;;;;0.70;0.40;;;;;;;-145.69;81.19;71318.81;5073444;28;20205;-81
2022/07/02 07:10:18;;;;;;;0.45;0.30;;;;;;;-145.69;80.25;71334.75;5073493;28;20194;-81
2022/07/02 07:12:44;;;;;;;0.95;0.50;;;;;;;-145.69;80.70;71320.81;5073231;28;20211;-81
2022/07/02 07:15:11;;;;;;;4.03;0.50;;;;;;;-145.69;79.62;71342.69;5073502;28;20199;-79
2022/07/02 07:17:37;;;;;;;1.00;0.57;;;;;;;-145.69;79.81;71338.72;5072026;28;20438;-81
2022/07/02 07:20:16;;;;;;;0.60;0.50;;;;;;;-145.69;80.22;71332.75;5073493;28;20572;-80
2022/07/02 07:22:43;;;;;;;1.08;0.47;;;;;;;-145.69;81.22;71342.69;5073307;28;20198;-81
2022/07/02 07:25:09;;;;;;;0.95;0.52;;;;;;;-145.69;83.52;71338.72;5071953;28;20289;-80
2022/07/02 07:27:36;;;;;;;0.40;0.40;;;;;;;-145.69;77.37;71350.66;5073484;28;20213;-82
2022/07/02 07:30:03;;;;;;;0.55;0.40;;;;;;;-145.69;80.51;71340.72;5073338;28;20213;-80
2022/07/02 07:32:29;;;;;;;0.40;0.40;;;;;;;-145.69;78.60;71294.94;5073364;28;20226;-80
2022/07/02 07:34:56;;;;;;;0.60;0.47;;;;;;;-145.69;80.93;71263.09;5073249;28;20202;-82
2022/07/02 07:37:23;;;;;;;0.50;0.50;;;;;;;-145.69;78.51;71261.13;5073032;28;20199;-80
2022/07/02 07:39:50;;;;;;;1.02;0.73;;;;;;;-145.69;77.42;71277.03;5073084;28;20526;-83
2022/07/02 07:42:16;;;;;;;0.52;0.40;;;;;;;-145.69;78.34;71283.00;5073026;28;20198;-80
2022/07/02 07:44:43;;;;;;;1.10;0.50;;;;;;;-145.69;74.74;71269.06;5072629;28;20529;-82
2022/07/02 07:47:09;;;;;;;0.60;0.50;;;;;;;-145.69;75.84;71267.09;5073147;28;20209;-83
2022/07/02 07:49:36;;;;;;;1.50;0.57;;;;;;;-145.69;71.79;71267.09;5072736;28;20696;-81
2022/07/02 07:52:03;;;;;;;0.50;0.50;;;;;;;-145.69;73.96;71255.16;5073084;28;20198;-83
2022/07/02 07:54:30;;;;;;;0.70;0.50;;;;;;;-145.69;73.52;71229.28;5071981;28;20864;-81
2022/07/02 07:56:57;;;;;;;0.40;0.40;;;;;;;-145.69;71.33;71229.28;5073202;28;20198;-80
2022/07/02 07:59:23;;;;;;;1.55;0.50;;;;;;;-145.69;71.08;71229.28;5072882;28;20241;-79
2022/07/02 08:01:50;;;;;;;0.80;0.45;;;;;;;-145.69;71.72;71251.16;5072788;28;20210;-80
2022/07/02 08:04:16;;;;;;;0.35;0.30;;;;;;;-145.69;68.63;71245.19;5072736;28;20764;-81
2022/07/02 08:06:43;;;;;;;3.60;0.57;;;;;;;-145.69;65.29;71235.25;5073007;28;20201;-80
2022/07/02 08:09:09;;;;;;;0.47;0.32;;;;;;;-145.69;66.81;71239.22;5072645;28;20214;-82
2022/07/02 08:11:37;;;;;;;0.73;0.50;;;;;;;-145.69;67.48;71235.25;5072752;28;20203;-80
2022/07/02 08:14:04;;;;;;;0.45;0.45;;;;;;;-145.69;66.11;71223.31;5072938;28;20245;-82
2022/07/02 08:16:31;;;;;;;1.10;0.40;;;;;;;-145.69;66.56;71199.44;5072548;28;20198;-80
2022/07/02 08:18:58;;;;;;;1.77;0.60;;;;;;;-145.69;63.34;71223.31;5072653;28;20226;-81
2022/07/02 08:21:25;;;;;;;1.55;0.40;;;;;;;-145.69;65.95;71225.31;5072703;28;20435;-80
2022/07/02 08:23:51;;;;;;;1.70;0.43;;;;;;;-145.69;69.97;71159.63;5072731;28;20211;-82
2022/07/02 08:26:18;;;;;;;1.48;0.50;;;;;;;-145.69;63.73;71157.66;5072785;28;20199;-81
2022/07/02 08:28:45;;;;;;;0.68;0.52;;;;;;;-145.69;61.58;71179.53;5072514;28;20653;-81
2022/07/02 08:31:12;;;;;;;2.03;0.52;;;;;;;-145.69;60.79;71149.69;5071693;28;20917;-82
2022/07/02 08:33:38;;;;;;;1.15;0.60;;;;;;;-145.69;64.55;71147.69;5072757;28;20221;-84
2022/07/02 08:36:05;;;;;;;1.73;0.60;;;;;;;-145.69;59.83;71153.66;5072407;28;20209;-82
2022/07/02 08:38:31;;;;;;;0.65;0.65;;;;;;;-145.69;60.14;71153.66;5075272;28;20222;-83
2022/07/02 08:40:58;;;;;;;4.82;0.73;;;;;;;-145.69;62.94;71151.69;5076644;28;20199;-81
2022/07/02 08:43:27;;;;;;;3.42;0.50;;;;;;;-145.69;61.54;71127.81;5076502;28;20206;-82
2022/07/02 08:45:56;;;;;;;2.55;0.50;;;;;;;-145.69;63.49;71115.88;5076858;28;20214;-83
2022/07/02 08:48:23;;;;;;;1.10;0.68;;;;;;;-145.69;61.15;71113.88;5076807;28;20235;-83
2022/07/02 08:50:50;;;;;;;1.75;0.70;;;;;;;-145.69;55.65;71119.84;5072194;28;20211;-83
2022/07/02 08:53:18;;;;;;;1.05;0.52;;;;;;;-145.69;59.88;71097.97;5056538;28;20196;-83
2022/07/02 08:55:45;;;;;;;2.28;0.73;;;;;;;-145.69;56.94;71123.81;5056643;28;20200;-84
2022/07/02 08:58:12;;;;;;;0.80;0.50;;;;;;;-145.69;55.62;71109.91;5055041;28;20462;-81
2022/07/02 09:00:39;;;;;;;3.03;0.40;;;;;;;-145.69;56.28;71099.94;5056213;28;20681;-81
2022/07/02 09:03:09;;;;;;;0.55;0.50;;;;;;;-145.69;57.83;71095.97;5055845;28;20203;-80
2022/07/02 09:05:38;;;;;;;1.25;0.55;;;;;;;-145.69;57.17;71078.06;5055709;28;20519;-80
2022/07/02 09:08:07;;;;;;;1.10;0.80;;;;;;;-145.69;54.66;71058.16;5055861;28;20257;-80
2022/07/02 09:10:34;;;;;;;0.52;0.50;;;;;;;-145.69;53.31;71048.22;5055844;28;20213;-80
2022/07/02 09:13:01;;;;;;;0.95;0.50;;;;;;;-145.69;54.71;71036.28;5055598;28;20199;-80
2022/07/02 09:15:28;;;;;;;0.68;0.60;;;;;;;-145.69;53.85;71032.28;5055670;28;20200;-79
2022/07/02 09:17:54;;;;;;;0.82;0.70;;;;;;;-145.69;52.79;71026.31;5055477;28;20209;-81
2022/07/02 09:20:23;;;;;;;2.30;0.68;;;;;;;-145.69;53.53;71034.28;5055732;28;20231;-80
2022/07/02 09:22:52;;;;;;;1.48;0.50;;;;;;;-145.69;54.15;71020.34;5055547;28;20205;-79
2022/07/02 09:25:20;;;;;;;1.08;0.63;;;;;;;-145.69;53.10;71030.31;5055567;28;20535;-80
2022/07/02 09:27:49;;;;;;;1.13;0.60;;;;;;;-145.69;55.03;71020.34;5055571;28;20207;-82
2022/07/02 09:30:17;;;;;;;0.50;0.50;;;;;;;-145.69;52.79;71028.31;5055384;28;20207;-82
2022/07/02 09:32:45;;;;;;;0.50;0.50;;;;;;;-145.69;53.09;71040.25;5055483;28;20439;-81
2022/07/02 09:35:18;;;;;;;0.90;0.50;;;;;;;-145.69;53.30;71020.34;5055579;28;20411;-81
2022/07/02 09:37:46;;;;;;;1.17;0.70;;;;;;;-145.69;56.58;71012.41;5055559;28;20203;-78
2022/07/02 09:40:13;;;;;;;0.95;0.60;;;;;;;-145.69;63.67;70978.56;5055329;28;20227;-79
2022/07/02 09:42:44;;;;;;;1.35;0.63;;;;;;;-145.69;54.55;70990.50;5055253;28;20203;-81
2022/07/02 09:45:11;;;;;;;0.50;0.47;;;;;;;-145.69;51.69;71016.38;5055408;28;20207;-80
2022/07/02 09:47:39;;;;;;;0.73;0.50;;;;;;;-145.69;53.35;71016.38;5054540;28;20650;-81
2022/07/02 09:50:08;;;;;;;0.80;0.40;;;;;;;-145.69;49.96;71012.41;5054798;28;20657;-82
2022/07/02 09:52:35;;;;;;;0.32;0.30;;;;;;;-145.69;52.52;71002.44;5055074;28;20203;-80
2022/07/02 09:55:04;;;;;;;0.50;0.50;;;;;;;-145.69;51.98;70990.50;5055052;28;20200;-82
2022/07/02 09:57:31;;;;;;;1.45;0.30;;;;;;;-145.69;51.38;71004.44;5054819;28;20465;-80
2022/07/02 10:00:05;;;;;;;0.30;0.30;;;;;;;-145.69;50.36;71006.44;5054617;28;20269;-80
2022/07/02 10:02:31;;;;;;;1.02;0.50;;;;;;;-145.69;51.48;70994.50;5054835;28;20202;-82
2022/07/02 10:04:58;;;;;;;0.57;0.40;;;;;;;-145.69;50.67;70984.53;5055089;28;20226;-82
2022/07/02 10:07:28;;;;;;;0.47;0.47;;;;;;;-145.69;49.26;70964.66;5054081;28;20214;-81
2022/07/02 10:09:54;;;;;;;0.73;0.43;;;;;;;-145.69;49.99;70958.69;5054807;28;20622;-81
2022/07/02 10:12:22;;;;;;;1.85;0.60;;;;;;;-145.69;51.48;70948.72;5054692;28;20257;-81
2022/07/02 10:14:53;;;;;;;1.42;0.35;;;;;;;-145.69;53.15;70952.72;5054806;28;20202;-83
2022/07/02 10:17:20;;;;;;;0.38;0.38;;;;;;;-145.69;56.69;70926.84;5054366;28;20200;-82
2022/07/02 10:19:48;;;;;;;0.63;0.40;;;;;;;-145.69;53.24;70920.88;5054211;28;20231;-82
2022/07/02 10:22:16;;;;;;;1.80;0.30;;;;;;;-145.69;53.22;70897.00;5053925;28;20693;-82
2022/07/02 10:24:43;;;;;;;0.57;0.40;;;;;;;-145.69;55.39;70889.03;5054278;28;20654;-82
2022/07/02 10:27:09;;;;;;;0.77;0.40;;;;;;;-145.69;53.35;70883.06;5054446;28;20257;-81
2022/07/02 10:29:39;;;;;;;0.90;0.40;;;;;;;-145.69;52.04;70873.13;5053638;28;20561;-81
2022/07/02 10:32:22;;;;;;;0.65;0.40;;;;;;;-145.69;49.88;70879.09;5054065;28;20673;-81
2022/07/02 10:34:55;;;;;;;0.77;0.52;;;;;;;-145.69;46.83;70906.94;5054272;28;20298;-82
2022/07/02 10:37:22;;;;;;;0.40;0.40;;;;;;;-145.69;54.41;70877.09;5054364;28;20206;-81
2022/07/02 10:39:49;;;;;;;1.38;0.50;;;;;;;-145.69;47.73;70916.91;5055330;28;20230;-80
2022/07/02 10:42:15;;;;;;;1.77;0.50;;;;;;;-145.69;57.74;70904.97;5055890;28;20199;-83
2022/07/02 10:44:45;;;;;;;0.40;0.40;;;;;;;-145.69;54.41;70877.09;5054476;28;20569;-80
2022/07/02 10:47:19;;;;;;;0.50;0.40;;;;;;;-145.69;48.07;70859.19;5056383;28;20204;-82
2022/07/02 10:49:56;;;;;;;0.40;0.30;;;;;;;-145.69;47.60;70853.22;5053848;28;20227;-85
2022/07/02 10:52:37;;;;;;;0.38;0.30;;;;;;;-145.69;49.94;70867.16;5054193;28;20294;-80
2022/07/02 10:55:05;;;;;;;0.52;0.40;;;;;;;-145.69;49.30;70869.16;5053884;28;20689;-82
2022/07/02 10:57:32;;;;;;;1.40;0.30;;;;;;;-145.69;46.61;70849.25;5054358;28;20305;-82
2022/07/02 11:00:01;;;;;;;0.43;0.40;;;;;;;-145.69;52.79;70841.28;5052874;28;20231;-82
2022/07/02 11:02:35;;;;;;;4.65;0.60;;;;;;;-145.69;48.88;70861.19;5054167;28;20221;-81
2022/07/02 11:05:09;;;;;;;1.55;0.57;;;;;;;-145.69;53.03;70805.47;5054208;28;20195;-83
2022/07/02 11:07:43;;;;;;;0.40;0.38;;;;;;;-145.69;51.00;70811.44;5053442;28;20593;-81
2022/07/02 11:10:12;;;;;;;0.80;0.40;;;;;;;-145.69;51.98;70781.59;5053492;28;20207;-79
2022/07/02 11:12:47;;;;;;;0.40;0.40;;;;;;;-145.69;46.12;70805.47;5053256;28;20282;-82
2022/07/02 11:15:19;;;;;;;2.95;0.30;;;;;;;-145.69;48.85;70775.63;5053432;28;20225;-81
2022/07/02 11:17:49;;;;;;;1.50;0.45;;;;;;;-145.69;46.21;70795.53;5053891;28;20203;-81